Time;durP1;ratioP1;P1;durP2;ratioP2;P2;SDS_P1;SDS_P2;PMS_P1;PMS_P2;Temp;Humidity;BMP_temperature;BMP_pressure;BME280_temperature;BME280_humidity;BME280_pressure;Samples;Min_cycle;Max_cycle;Signal;HPM_P1;HPM_P2
2021/01/21 00:00:55;;;;;;;23.00;13.87;;;;;;;0.44;83.80;98515.70;492301;1128;114324;-65
2021/01/21 00:10:59;;;;;;;19.50;11.77;;;;;;;0.47;83.71;98515.57;492061;1129;114599;-65
2021/01/21 00:21:03;;;;;;;17.10;10.77;;;;;;;0.47;82.78;98502.66;492067;1128;114283;-65
2021/01/21 00:31:07;;;;;;;16.53;11.33;;;;;;;0.58;83.34;98519.47;492311;1129;114302;-65
2021/01/21 00:41:11;;;;;;;16.65;9.85;;;;;;;0.69;83.91;98502.64;492325;1128;115030;-66
2021/01/21 00:51:15;;;;;;;15.70;11.60;;;;;;;0.74;83.78;98507.59;492890;1129;113990;-65
2021/01/21 01:01:19;;;;;;;15.60;9.50;;;;;;;0.79;83.04;98491.90;493072;1129;114224;-65
2021/01/21 01:11:23;;;;;;;13.70;9.67;;;;;;;0.86;83.43;98483.00;492778;1128;114770;-64
2021/01/21 01:21:27;;;;;;;11.25;9.25;;;;;;;1.00;83.26;98474.67;492339;1128;114469;-65
2021/01/21 01:31:31;;;;;;;14.53;9.13;;;;;;;1.05;83.21;98474.47;492952;1128;113983;-68
2021/01/21 01:41:37;;;;;;;12.70;8.33;;;;;;;1.08;82.78;98466.58;492985;1128;114528;-65
2021/01/21 01:51:43;;;;;;;13.80;9.95;;;;;;;1.16;82.92;98461.06;493101;1128;113884;-65
2021/01/21 02:01:49;;;;;;;13.85;9.23;;;;;;;1.23;82.90;98471.07;493481;1128;113869;-65
2021/01/21 02:12:08;;;;;;;13.67;10.07;;;;;;;1.30;82.81;98471.64;493152;1129;113916;-64
2021/01/21 02:22:31;;;;;;;11.80;9.45;;;;;;;1.33;82.58;98474.11;493570;1129;114676;-65
2021/01/21 02:32:51;;;;;;;12.20;8.50;;;;;;;1.42;82.71;98457.34;493525;1128;114156;-65
2021/01/21 02:42:55;;;;;;;13.87;10.30;;;;;;;1.46;82.20;98458.05;493368;1129;113992;-65
2021/01/21 02:53:01;;;;;;;15.77;9.97;;;;;;;1.46;82.25;98474.39;493010;1129;114222;-66
2021/01/21 03:03:13;;;;;;;13.53;9.97;;;;;;;1.46;82.24;98460.63;493161;1129;114040;-66
2021/01/21 03:13:17;;;;;;;12.40;8.90;;;;;;;1.39;82.27;98471.23;492936;1129;114715;-64
2021/01/21 03:23:21;;;;;;;16.10;8.97;;;;;;;1.33;82.70;98481.88;492508;1129;113950;-65
2021/01/21 03:33:25;;;;;;;16.15;10.25;;;;;;;1.30;82.59;98470.81;493240;1128;114224;-65
2021/01/21 03:43:29;;;;;;;16.33;10.93;;;;;;;1.26;82.76;98467.52;493120;1131;114118;-64
2021/01/21 03:53:32;;;;;;;14.90;9.40;;;;;;;1.23;82.39;98468.48;493096;1129;114225;-66
2021/01/21 04:03:37;;;;;;;15.30;9.13;;;;;;;1.20;83.24;98460.87;493118;1132;114445;-64
2021/01/21 04:13:41;;;;;;;13.50;9.97;;;;;;;1.15;82.77;98443.88;493145;1128;113907;-65
2021/01/21 04:23:45;;;;;;;15.23;9.90;;;;;;;1.20;82.56;98453.11;492866;1129;113850;-65
2021/01/21 04:33:49;;;;;;;13.37;8.57;;;;;;;1.29;83.09;98449.27;492992;1129;113937;-66
2021/01/21 04:43:53;;;;;;;14.17;9.27;;;;;;;1.27;83.01;98448.50;492469;1129;113959;-65
2021/01/21 04:54:07;;;;;;;16.67;10.70;;;;;;;1.25;83.03;98453.73;492747;1128;114170;-65
2021/01/21 05:04:12;;;;;;;16.25;11.10;;;;;;;1.26;82.92;98450.23;492450;1129;114315;-66
2021/01/21 05:14:16;;;;;;;13.37;8.97;;;;;;;1.25;82.90;98451.15;492683;1129;114155;-64
2021/01/21 05:24:20;;;;;;;14.57;9.47;;;;;;;1.20;83.67;98458.28;493574;1129;114039;-66
2021/01/21 05:34:24;;;;;;;17.07;10.00;;;;;;;1.17;83.17;98460.16;492388;1129;113968;-65
2021/01/21 05:44:28;;;;;;;20.77;10.13;;;;;;;1.16;83.32;98458.48;492322;1128;114136;-65
2021/01/21 05:54:33;;;;;;;13.83;10.50;;;;;;;1.17;83.40;98449.81;492421;1129;114135;-66
2021/01/21 06:04:40;;;;;;;15.90;10.17;;;;;;;1.30;84.16;98448.36;492554;1128;114145;-66
2021/01/21 06:14:46;;;;;;;16.60;11.78;;;;;;;1.46;83.29;98437.34;493224;1128;114131;-64
2021/01/21 06:24:54;;;;;;;14.90;10.60;;;;;;;1.63;83.64;98452.93;493044;1129;114124;-65
2021/01/21 06:35:02;;;;;;;18.23;11.67;;;;;;;1.78;83.45;98460.89;492622;1128;114541;-65
2021/01/21 06:45:10;;;;;;;15.77;11.73;;;;;;;1.93;83.18;98462.78;493381;1129;114204;-64
2021/01/21 06:55:16;;;;;;;19.03;12.17;;;;;;;2.12;83.18;98461.08;493033;1130;114189;-65
2021/01/21 07:05:22;;;;;;;21.50;15.00;;;;;;;2.35;82.99;98468.59;493321;1130;114504;-65
2021/01/21 07:15:39;;;;;;;24.23;14.63;;;;;;;2.76;82.57;98474.39;492633;1129;114188;-65
2021/01/21 07:25:43;;;;;;;24.02;13.40;;;;;;;3.54;81.80;98460.06;492731;1128;115359;-65
2021/01/21 07:35:47;;;;;;;23.20;13.30;;;;;;;6.01;80.18;98444.09;492951;1128;114443;-72
2021/01/21 07:45:51;;;;;;;20.30;13.43;;;;;;;8.20;77.01;98428.48;492882;1128;114567;-72
2021/01/21 07:56:03;;;;;;;17.27;12.40;;;;;;;9.87;74.55;98422.03;492485;1128;114361;-71
2021/01/21 08:06:11;;;;;;;17.30;12.45;;;;;;;11.21;72.05;98413.78;483797;1128;10001066;-60
2021/01/21 08:16:16;;;;;;;18.60;12.00;;;;;;;12.72;69.98;98419.00;492362;1128;115267;-60
2021/01/21 08:26:20;;;;;;;14.87;11.60;;;;;;;13.76;67.17;98413.80;492421;1128;114976;-60
2021/01/21 08:36:26;;;;;;;16.25;11.40;;;;;;;14.08;63.81;98412.48;492707;1128;114915;-60
2021/01/21 08:46:31;;;;;;;15.40;11.50;;;;;;;14.43;63.43;98408.19;492072;1128;115006;-61
2021/01/21 08:56:35;;;;;;;15.25;12.20;;;;;;;15.43;61.44;98406.20;492612;1129;114793;-63
2021/01/21 09:06:42;;;;;;;13.73;11.00;;;;;;;15.75;59.24;98402.00;491942;1128;115198;-62
2021/01/21 09:16:55;;;;;;;14.33;11.00;;;;;;;15.83;58.24;98397.58;492429;1128;114928;-63
2021/01/21 09:27:14;;;;;;;14.17;11.50;;;;;;;15.78;57.03;98393.75;493193;1128;114558;-61
2021/01/21 09:37:22;;;;;;;11.97;10.57;;;;;;;15.77;55.94;98386.81;493382;1128;115401;-59
2021/01/21 09:47:28;;;;;;;15.67;12.37;;;;;;;13.29;56.02;98392.64;492982;1128;114981;-65
2021/01/21 09:57:32;;;;;;;15.67;11.00;;;;;;;11.01;58.18;98383.94;493481;1128;114572;-62
2021/01/21 10:07:36;;;;;;;17.00;11.20;;;;;;;9.31;60.10;98379.22;493306;1128;114608;-65
2021/01/21 10:17:41;;;;;;;12.10;8.80;;;;;;;8.40;61.50;98395.63;493281;1129;114868;-59
2021/01/21 10:27:47;;;;;;;19.07;12.10;;;;;;;7.78;62.62;98388.82;492827;1128;114335;-59
2021/01/21 10:37:51;;;;;;;14.83;9.90;;;;;;;7.31;63.64;98423.41;492515;1128;114217;-59
2021/01/21 10:47:55;;;;;;;15.67;10.63;;;;;;;6.89;64.53;98407.98;493302;1128;114719;-60
2021/01/21 10:57:59;;;;;;;19.53;11.87;;;;;;;6.63;65.16;98400.13;493364;1129;114302;-62
2021/01/21 11:08:05;;;;;;;18.00;9.23;;;;;;;6.32;65.88;98389.14;492936;1127;114221;-61
2021/01/21 11:18:09;;;;;;;15.43;12.37;;;;;;;6.21;66.59;98362.94;493116;1129;114034;-59
2021/01/21 11:28:14;;;;;;;12.93;8.93;;;;;;;6.22;66.70;98357.61;492886;1128;114711;-61
2021/01/21 11:38:17;;;;;;;14.37;9.60;;;;;;;6.36;66.88;98342.84;493267;1128;114316;-62
2021/01/21 11:48:22;;;;;;;12.80;9.30;;;;;;;6.42;66.99;98325.02;493204;1129;114352;-60
2021/01/21 11:58:27;;;;;;;13.43;9.37;;;;;;;6.51;67.18;98327.92;493389;1128;114427;-60
2021/01/21 12:08:31;;;;;;;13.13;9.07;;;;;;;6.62;67.19;98306.34;493645;1128;114034;-59
2021/01/21 12:18:37;;;;;;;16.27;8.83;;;;;;;6.56;67.01;98310.20;493644;1127;113979;-62
2021/01/21 12:28:42;;;;;;;13.40;9.13;;;;;;;6.44;67.40;98278.80;492545;1128;115017;-61
2021/01/21 12:38:46;;;;;;;16.80;10.43;;;;;;;6.39;67.42;98277.45;492416;1128;114566;-61
2021/01/21 12:48:50;;;;;;;15.10;8.00;;;;;;;6.28;67.93;98272.94;493184;1128;114192;-60
2021/01/21 12:58:54;;;;;;;13.20;9.13;;;;;;;6.19;68.38;98263.98;492569;1129;113978;-61
2021/01/21 13:08:58;;;;;;;12.35;7.40;;;;;;;5.99;68.31;98255.69;492502;1129;114522;-62
2021/01/21 13:19:02;;;;;;;11.97;9.37;;;;;;;5.82;68.53;98248.98;493509;1129;113965;-60
2021/01/21 13:29:06;;;;;;;28.00;14.67;;;;;;;5.69;69.21;98272.42;493213;1128;114916;-59
2021/01/21 13:39:12;;;;;;;13.23;9.20;;;;;;;5.60;68.99;98281.67;492747;1128;114652;-64
2021/01/21 13:49:16;;;;;;;14.55;8.40;;;;;;;5.66;69.39;98290.86;492993;1128;114600;-61
2021/01/21 13:59:20;;;;;;;16.00;8.83;;;;;;;5.66;69.30;98284.80;492616;1128;114296;-59
2021/01/21 14:09:24;;;;;;;11.80;8.77;;;;;;;5.60;69.44;98279.06;493207;1129;114034;-63
2021/01/21 14:19:31;;;;;;;14.67;10.17;;;;;;;5.50;69.44;98292.76;493223;1128;114413;-63
2021/01/21 14:29:35;;;;;;;18.60;10.80;;;;;;;5.28;69.53;98279.35;492856;1128;114693;-66
2021/01/21 14:39:39;;;;;;;15.30;10.15;;;;;;;5.05;70.61;98288.59;492535;1128;114631;-64
2021/01/21 14:49:43;;;;;;;22.83;13.90;;;;;;;4.81;70.74;98283.97;493477;1128;114222;-64
2021/01/21 14:59:47;;;;;;;21.05;12.75;;;;;;;4.55;70.78;98301.15;493620;1128;114524;-65
2021/01/21 15:09:51;;;;;;;16.50;11.63;;;;;;;4.34;71.37;98298.92;493029;1129;114462;-65
2021/01/21 15:19:55;;;;;;;28.97;15.30;;;;;;;4.16;71.94;98296.47;493379;1128;114337;-60
2021/01/21 15:29:59;;;;;;;27.07;15.30;;;;;;;4.00;72.14;98324.27;492919;1128;114361;-63
2021/01/21 15:40:06;;;;;;;18.23;11.47;;;;;;;3.79;72.48;98324.56;493597;1129;115128;-64
2021/01/21 15:50:12;;;;;;;26.63;14.03;;;;;;;3.64;73.12;98308.09;493495;1128;114392;-64
2021/01/21 16:00:18;;;;;;;23.40;15.10;;;;;;;3.53;73.40;98297.47;492705;1128;114274;-66
2021/01/21 16:10:32;;;;;;;20.97;13.07;;;;;;;3.38;73.80;98296.55;492323;1129;115119;-66
2021/01/21 16:20:36;;;;;;;21.47;12.67;;;;;;;3.29;74.16;98290.98;492722;1129;114147;-68
2021/01/21 16:30:40;;;;;;;36.07;19.67;;;;;;;3.21;74.39;98287.95;492751;1128;114216;-65
2021/01/21 16:40:44;;;;;;;27.30;17.20;;;;;;;3.09;74.23;98294.63;493085;1128;114125;-62
2021/01/21 16:50:50;;;;;;;32.50;19.63;;;;;;;2.93;74.90;98302.40;492612;1128;114627;-64
2021/01/21 17:00:55;;;;;;;34.05;20.90;;;;;;;2.82;74.87;98286.58;492830;1127;114606;-63
2021/01/21 17:10:58;;;;;;;29.80;18.70;;;;;;;2.76;75.63;98285.14;493574;1128;114168;-65
2021/01/21 17:21:04;;;;;;;25.67;14.80;;;;;;;2.77;75.64;98297.19;493365;1128;114264;-68
2021/01/21 17:31:08;;;;;;;26.13;16.27;;;;;;;2.79;75.93;98282.41;493435;1128;114170;-61
2021/01/21 17:41:12;;;;;;;24.43;15.53;;;;;;;2.72;75.98;98273.27;492275;1128;115583;-60
2021/01/21 17:51:16;;;;;;;20.67;14.40;;;;;;;2.63;76.28;98277.20;493268;1128;114794;-67
2021/01/21 18:01:20;;;;;;;25.77;13.23;;;;;;;2.55;76.62;98268.98;484542;1128;10001791;-77
2021/01/21 18:11:38;;;;;;;22.83;13.47;;;;;;;2.48;76.58;98258.95;496207;1129;114299;-79
2021/01/21 18:21:42;;;;;;;22.97;13.43;;;;;;;2.50;76.72;98272.66;495860;1128;114271;-78
2021/01/21 18:31:46;;;;;;;30.10;18.63;;;;;;;2.55;76.51;98279.34;495327;1129;114681;-77
2021/01/21 18:41:51;;;;;;;25.47;14.73;;;;;;;2.56;76.58;98258.55;495774;1128;114773;-76
2021/01/21 18:51:55;;;;;;;38.55;19.95;;;;;;;2.52;76.24;98246.64;495183;1128;114821;-65
2021/01/21 19:01:59;;;;;;;37.17;20.50;;;;;;;2.51;76.62;98257.93;493088;1128;114953;-70
2021/01/21 19:12:04;;;;;;;23.07;14.17;;;;;;;2.60;76.57;98261.81;493511;1128;114025;-69
2021/01/21 19:22:08;;;;;;;28.53;15.20;;;;;;;2.72;76.82;98253.39;493103;1129;115414;-70
2021/01/21 19:32:13;;;;;;;32.90;18.77;;;;;;;2.80;75.87;98240.02;493179;1128;114105;-71
2021/01/21 19:42:18;;;;;;;50.70;26.33;;;;;;;2.82;76.15;98250.28;493215;1128;114644;-63
2021/01/21 19:52:22;;;;;;;37.93;21.90;;;;;;;2.80;76.03;98240.02;492803;1129;114734;-69
2021/01/21 20:02:27;;;;;;;25.93;15.87;;;;;;;2.80;76.08;98253.80;493059;1128;114785;-63
2021/01/21 20:12:32;;;;;;;25.60;15.70;;;;;;;2.81;75.48;98228.72;492711;1128;114125;-66
2021/01/21 20:22:39;;;;;;;24.35;14.60;;;;;;;2.84;75.53;98244.10;493095;1128;114837;-69
2021/01/21 20:32:43;;;;;;;22.65;12.93;;;;;;;2.85;75.38;98239.77;492849;1128;114019;-70
2021/01/21 20:42:48;;;;;;;22.30;12.57;;;;;;;2.85;75.35;98235.40;492573;1128;114136;-68
2021/01/21 20:52:52;;;;;;;21.77;11.80;;;;;;;2.76;74.98;98241.08;492548;1129;114505;-67
2021/01/21 21:02:56;;;;;;;22.97;12.20;;;;;;;2.67;75.19;98229.45;493399;1129;114034;-74
2021/01/21 21:13:01;;;;;;;19.90;11.33;;;;;;;2.64;75.61;98235.63;495476;1128;114306;-73
2021/01/21 21:23:05;;;;;;;22.60;12.13;;;;;;;2.64;74.99;98224.44;492281;1129;114566;-71
2021/01/21 21:33:09;;;;;;;27.60;15.63;;;;;;;2.67;75.31;98221.67;492620;1128;114416;-62
2021/01/21 21:43:13;;;;;;;21.73;11.07;;;;;;;2.87;75.44;98209.41;491942;1128;114349;-60
2021/01/21 21:53:17;;;;;;;20.92;12.00;;;;;;;3.01;74.62;98211.25;492135;1128;114238;-59
2021/01/21 22:03:24;;;;;;;22.03;13.00;;;;;;;3.26;74.41;98184.75;492518;1128;114426;-61
2021/01/21 22:13:28;;;;;;;19.13;9.87;;;;;;;3.48;74.62;98199.95;493217;1129;114197;-67
2021/01/21 22:23:32;;;;;;;20.53;10.37;;;;;;;3.61;73.41;98204.44;493354;1129;113974;-66
2021/01/21 22:33:36;;;;;;;18.83;8.53;;;;;;;3.59;73.95;98204.52;492609;1128;114175;-65
2021/01/21 22:43:41;;;;;;;15.47;10.67;;;;;;;3.48;73.42;98215.52;492222;1128;114375;-66
2021/01/21 22:53:44;;;;;;;17.27;9.60;;;;;;;3.45;73.59;98196.69;492227;1129;114125;-65
2021/01/21 23:03:48;;;;;;;16.53;7.67;;;;;;;3.51;73.59;98178.16;492436;1128;114910;-65
2021/01/21 23:13:53;;;;;;;14.80;7.60;;;;;;;3.52;74.10;98171.22;492970;1128;114402;-66
2021/01/21 23:23:57;;;;;;;12.63;7.90;;;;;;;3.58;73.66;98174.29;492831;1128;113979;-66
2021/01/21 23:34:02;;;;;;;11.93;6.57;;;;;;;3.47;73.94;98161.09;493071;1129;113832;-67
2021/01/21 23:44:06;;;;;;;13.17;7.63;;;;;;;3.37;73.77;98147.83;492812;1128;113976;-64
2021/01/21 23:54:10;;;;;;;15.00;8.60;;;;;;;3.42;74.35;98150.16;492444;1129;113950;-65
